Union, Ohio
Current Conditions -  °F | °C
As of 10:47 PM on Saturday 24 Jan 2015 (Local Time) from KDAY Reporting Station
Overcast Overcast  
Wind Chill: 28°   Ceiling: 3100
Heat Index: 35°   Visibility: 8mi
Dew Point: 29°   Wind: 9mph
Humidity: 78%   Direction: 200°SSW
Pressure: 29.76"   Gusts: NA
Location:  39.8939°N, 84.3314°W
Report Text: KDAY 250347Z 20008KT 8SM OVC031 02/M02 A2976 RMK AO2 T00171017
Loading
Personal Weather Stations






























Interactive Weather Map New forecast layout! Learn more

10-Day Weather Forecast

Advertisements
Track Severe Weather on mobile